sensor_id;sensor_type;location;lat;lon;timestamp;P1;durP1;ratioP1;P2;durP2;ratioP2
15629;SDS011;7914;50.842;0.166;2023-02-11T00:01:34;3.40;;;3.30;;
15629;SDS011;7914;50.842;0.166;2023-02-11T00:04:01;3.43;;;3.33;;
15629;SDS011;7914;50.842;0.166;2023-02-11T00:06:29;3.30;;;3.20;;
15629;SDS011;7914;50.842;0.166;2023-02-11T00:08:55;3.23;;;3.13;;
15629;SDS011;7914;50.842;0.166;2023-02-11T00:11:22;3.60;;;3.50;;
15629;SDS011;7914;50.842;0.166;2023-02-11T00:13:50;3.60;;;3.50;;
15629;SDS011;7914;50.842;0.166;2023-02-11T00:16:17;3.30;;;3.20;;
15629;SDS011;7914;50.842;0.166;2023-02-11T00:18:44;3.50;;;3.40;;
15629;SDS011;7914;50.842;0.166;2023-02-11T00:21:12;3.53;;;3.43;;
15629;SDS011;7914;50.842;0.166;2023-02-11T00:23:40;3.40;;;3.30;;
15629;SDS011;7914;50.842;0.166;2023-02-11T00:26:13;3.43;;;3.33;;
15629;SDS011;7914;50.842;0.166;2023-02-11T00:28:43;3.40;;;3.30;;
15629;SDS011;7914;50.842;0.166;2023-02-11T00:31:10;3.30;;;3.20;;
15629;SDS011;7914;50.842;0.166;2023-02-11T00:33:37;3.40;;;3.30;;
15629;SDS011;7914;50.842;0.166;2023-02-11T00:36:07;3.60;;;3.50;;
15629;SDS011;7914;50.842;0.166;2023-02-11T00:38:35;3.33;;;3.23;;
15629;SDS011;7914;50.842;0.166;2023-02-11T00:41:01;3.30;;;3.20;;
15629;SDS011;7914;50.842;0.166;2023-02-11T00:43:27;3.50;;;3.40;;
15629;SDS011;7914;50.842;0.166;2023-02-11T00:45:52;3.30;;;3.20;;
15629;SDS011;7914;50.842;0.166;2023-02-11T00:48:18;3.40;;;3.30;;
15629;SDS011;7914;50.842;0.166;2023-02-11T00:50:44;3.37;;;3.27;;
15629;SDS011;7914;50.842;0.166;2023-02-11T00:53:09;3.20;;;3.10;;
15629;SDS011;7914;50.842;0.166;2023-02-11T00:55:35;3.40;;;3.30;;
15629;SDS011;7914;50.842;0.166;2023-02-11T00:58:01;3.30;;;3.20;;
15629;SDS011;7914;50.842;0.166;2023-02-11T01:00:26;3.50;;;3.40;;
15629;SDS011;7914;50.842;0.166;2023-02-11T01:02:52;3.60;;;3.50;;
15629;SDS011;7914;50.842;0.166;2023-02-11T01:05:19;3.50;;;3.40;;
15629;SDS011;7914;50.842;0.166;2023-02-11T01:07:45;3.17;;;3.07;;
15629;SDS011;7914;50.842;0.166;2023-02-11T01:10:11;3.50;;;3.40;;
15629;SDS011;7914;50.842;0.166;2023-02-11T01:12:37;3.53;;;3.43;;
15629;SDS011;7914;50.842;0.166;2023-02-11T01:15:05;3.40;;;3.30;;
15629;SDS011;7914;50.842;0.166;2023-02-11T01:17:33;3.30;;;3.20;;
15629;SDS011;7914;50.842;0.166;2023-02-11T01:20:00;3.20;;;3.10;;
15629;SDS011;7914;50.842;0.166;2023-02-11T01:22:30;3.33;;;3.23;;
15629;SDS011;7914;50.842;0.166;2023-02-11T01:24:58;3.70;;;3.60;;
15629;SDS011;7914;50.842;0.166;2023-02-11T01:27:25;3.50;;;3.40;;
15629;SDS011;7914;50.842;0.166;2023-02-11T01:29:50;3.43;;;3.33;;
15629;SDS011;7914;50.842;0.166;2023-02-11T01:32:16;3.40;;;3.30;;
15629;SDS011;7914;50.842;0.166;2023-02-11T01:34:42;3.50;;;3.40;;
15629;SDS011;7914;50.842;0.166;2023-02-11T01:37:07;3.60;;;3.50;;
15629;SDS011;7914;50.842;0.166;2023-02-11T01:39:33;3.47;;;3.37;;
15629;SDS011;7914;50.842;0.166;2023-02-11T01:42:00;3.40;;;3.30;;
15629;SDS011;7914;50.842;0.166;2023-02-11T01:44:27;3.83;;;3.73;;
15629;SDS011;7914;50.842;0.166;2023-02-11T01:46:54;3.90;;;3.80;;
15629;SDS011;7914;50.842;0.166;2023-02-11T01:49:22;3.60;;;3.50;;
15629;SDS011;7914;50.842;0.166;2023-02-11T01:51:56;3.80;;;3.70;;
15629;SDS011;7914;50.842;0.166;2023-02-11T01:54:34;3.60;;;3.50;;
15629;SDS011;7914;50.842;0.166;2023-02-11T01:57:24;3.77;;;3.67;;
15629;SDS011;7914;50.842;0.166;2023-02-11T01:59:57;4.00;;;3.90;;
15629;SDS011;7914;50.842;0.166;2023-02-11T02:02:26;3.90;;;3.80;;
15629;SDS011;7914;50.842;0.166;2023-02-11T02:05:30;3.87;;;3.77;;
15629;SDS011;7914;50.842;0.166;2023-02-11T02:11:10;4.10;;;4.00;;
15629;SDS011;7914;50.842;0.166;2023-02-11T02:13:36;3.93;;;3.83;;
15629;SDS011;7914;50.842;0.166;2023-02-11T02:16:05;3.80;;;3.70;;
15629;SDS011;7914;50.842;0.166;2023-02-11T02:27:19;3.73;;;3.63;;
15629;SDS011;7914;50.842;0.166;2023-02-11T02:29:57;3.67;;;3.57;;
15629;SDS011;7914;50.842;0.166;2023-02-11T02:37:46;3.30;;;3.20;;
15629;SDS011;7914;50.842;0.166;2023-02-11T02:40:52;3.40;;;3.30;;
15629;SDS011;7914;50.842;0.166;2023-02-11T02:43:22;3.53;;;3.43;;
15629;SDS011;7914;50.842;0.166;2023-02-11T02:45:50;3.50;;;3.40;;
15629;SDS011;7914;50.842;0.166;2023-02-11T02:48:29;3.40;;;3.30;;
15629;SDS011;7914;50.842;0.166;2023-02-11T02:51:07;3.30;;;3.20;;
15629;SDS011;7914;50.842;0.166;2023-02-11T03:00:13;3.30;;;3.20;;
15629;SDS011;7914;50.842;0.166;2023-02-11T03:05:34;3.23;;;3.13;;
15629;SDS011;7914;50.842;0.166;2023-02-11T03:08:11;3.40;;;3.30;;
15629;SDS011;7914;50.842;0.166;2023-02-11T03:10:43;3.30;;;3.20;;
15629;SDS011;7914;50.842;0.166;2023-02-11T03:13:12;3.00;;;2.90;;
15629;SDS011;7914;50.842;0.166;2023-02-11T03:15:42;3.30;;;3.20;;
15629;SDS011;7914;50.842;0.166;2023-02-11T03:18:12;3.50;;;3.40;;
15629;SDS011;7914;50.842;0.166;2023-02-11T03:20:43;3.30;;;3.20;;
15629;SDS011;7914;50.842;0.166;2023-02-11T03:23:28;3.33;;;3.23;;
15629;SDS011;7914;50.842;0.166;2023-02-11T03:26:20;3.73;;;3.63;;
15629;SDS011;7914;50.842;0.166;2023-02-11T03:34:09;3.40;;;3.30;;
15629;SDS011;7914;50.842;0.166;2023-02-11T03:36:51;3.00;;;2.90;;
15629;SDS011;7914;50.842;0.166;2023-02-11T03:39:32;3.20;;;3.10;;
15629;SDS011;7914;50.842;0.166;2023-02-11T03:42:02;3.10;;;3.00;;
15629;SDS011;7914;50.842;0.166;2023-02-11T03:44:31;3.07;;;2.97;;
15629;SDS011;7914;50.842;0.166;2023-02-11T03:47:02;3.40;;;3.30;;
15629;SDS011;7914;50.842;0.166;2023-02-11T03:49:31;3.03;;;2.93;;
15629;SDS011;7914;50.842;0.166;2023-02-11T03:51:59;2.93;;;2.83;;
15629;SDS011;7914;50.842;0.166;2023-02-11T03:54:28;3.23;;;3.13;;
15629;SDS011;7914;50.842;0.166;2023-02-11T03:56:56;3.17;;;3.07;;
15629;SDS011;7914;50.842;0.166;2023-02-11T03:59:23;3.10;;;3.00;;
15629;SDS011;7914;50.842;0.166;2023-02-11T04:01:49;3.00;;;2.90;;
15629;SDS011;7914;50.842;0.166;2023-02-11T04:04:15;2.93;;;2.83;;
15629;SDS011;7914;50.842;0.166;2023-02-11T04:06:41;2.70;;;2.60;;
15629;SDS011;7914;50.842;0.166;2023-02-11T04:09:07;3.20;;;3.10;;
15629;SDS011;7914;50.842;0.166;2023-02-11T04:11:34;3.20;;;3.10;;
15629;SDS011;7914;50.842;0.166;2023-02-11T04:14:00;3.40;;;3.30;;
15629;SDS011;7914;50.842;0.166;2023-02-11T04:16:25;3.37;;;3.27;;
15629;SDS011;7914;50.842;0.166;2023-02-11T04:18:51;3.23;;;3.13;;
15629;SDS011;7914;50.842;0.166;2023-02-11T04:21:17;3.10;;;3.00;;
15629;SDS011;7914;50.842;0.166;2023-02-11T04:23:43;3.10;;;3.00;;
15629;SDS011;7914;50.842;0.166;2023-02-11T04:26:08;3.33;;;3.23;;
15629;SDS011;7914;50.842;0.166;2023-02-11T04:28:34;3.00;;;2.90;;
15629;SDS011;7914;50.842;0.166;2023-02-11T04:31:00;3.10;;;3.00;;
15629;SDS011;7914;50.842;0.166;2023-02-11T04:33:26;3.00;;;2.90;;
15629;SDS011;7914;50.842;0.166;2023-02-11T04:35:52;3.23;;;3.13;;
15629;SDS011;7914;50.842;0.166;2023-02-11T04:38:17;3.10;;;3.00;;
15629;SDS011;7914;50.842;0.166;2023-02-11T04:40:43;3.20;;;3.10;;
15629;SDS011;7914;50.842;0.166;2023-02-11T04:43:09;2.93;;;2.83;;
15629;SDS011;7914;50.842;0.166;2023-02-11T04:45:35;3.20;;;3.10;;
15629;SDS011;7914;50.842;0.166;2023-02-11T04:48:01;3.17;;;3.07;;
15629;SDS011;7914;50.842;0.166;2023-02-11T04:50:27;3.00;;;2.90;;
15629;SDS011;7914;50.842;0.166;2023-02-11T04:52:53;3.00;;;2.90;;
15629;SDS011;7914;50.842;0.166;2023-02-11T04:55:18;2.80;;;2.70;;
15629;SDS011;7914;50.842;0.166;2023-02-11T04:57:44;2.60;;;2.50;;
15629;SDS011;7914;50.842;0.166;2023-02-11T05:00:10;2.73;;;2.63;;
15629;SDS011;7914;50.842;0.166;2023-02-11T05:02:36;2.60;;;2.50;;
15629;SDS011;7914;50.842;0.166;2023-02-11T05:05:02;2.60;;;2.50;;
15629;SDS011;7914;50.842;0.166;2023-02-11T05:07:28;2.70;;;2.60;;
15629;SDS011;7914;50.842;0.166;2023-02-11T05:09:54;2.60;;;2.50;;
15629;SDS011;7914;50.842;0.166;2023-02-11T05:12:19;2.50;;;2.40;;
15629;SDS011;7914;50.842;0.166;2023-02-11T05:14:45;2.60;;;2.50;;
15629;SDS011;7914;50.842;0.166;2023-02-11T05:17:11;2.70;;;2.60;;
15629;SDS011;7914;50.842;0.166;2023-02-11T05:19:37;2.50;;;2.40;;
15629;SDS011;7914;50.842;0.166;2023-02-11T05:22:03;2.80;;;2.70;;
15629;SDS011;7914;50.842;0.166;2023-02-11T05:24:30;2.80;;;2.70;;
15629;SDS011;7914;50.842;0.166;2023-02-11T05:26:56;2.80;;;2.70;;
15629;SDS011;7914;50.842;0.166;2023-02-11T05:29:22;2.70;;;2.60;;
15629;SDS011;7914;50.842;0.166;2023-02-11T05:31:47;2.70;;;2.60;;
15629;SDS011;7914;50.842;0.166;2023-02-11T05:34:13;2.50;;;2.40;;
15629;SDS011;7914;50.842;0.166;2023-02-11T05:36:39;2.60;;;2.50;;
15629;SDS011;7914;50.842;0.166;2023-02-11T05:39:04;2.40;;;2.30;;
15629;SDS011;7914;50.842;0.166;2023-02-11T05:41:30;2.80;;;2.70;;
15629;SDS011;7914;50.842;0.166;2023-02-11T05:43:56;2.80;;;2.70;;
15629;SDS011;7914;50.842;0.166;2023-02-11T05:46:21;2.50;;;2.40;;
15629;SDS011;7914;50.842;0.166;2023-02-11T05:48:47;2.40;;;2.30;;
15629;SDS011;7914;50.842;0.166;2023-02-11T05:51:12;2.20;;;2.10;;
15629;SDS011;7914;50.842;0.166;2023-02-11T05:53:38;2.40;;;2.30;;
15629;SDS011;7914;50.842;0.166;2023-02-11T05:56:04;2.70;;;2.60;;
15629;SDS011;7914;50.842;0.166;2023-02-11T05:58:31;2.47;;;2.37;;
15629;SDS011;7914;50.842;0.166;2023-02-11T06:00:56;2.73;;;2.63;;
15629;SDS011;7914;50.842;0.166;2023-02-11T06:03:22;2.70;;;2.60;;
15629;SDS011;7914;50.842;0.166;2023-02-11T06:05:48;2.53;;;2.43;;
15629;SDS011;7914;50.842;0.166;2023-02-11T06:08:13;2.20;;;2.10;;
15629;SDS011;7914;50.842;0.166;2023-02-11T06:10:39;2.53;;;2.43;;
15629;SDS011;7914;50.842;0.166;2023-02-11T06:13:07;2.57;;;2.47;;
15629;SDS011;7914;50.842;0.166;2023-02-11T06:15:33;2.60;;;2.50;;
15629;SDS011;7914;50.842;0.166;2023-02-11T06:17:58;2.77;;;2.67;;
15629;SDS011;7914;50.842;0.166;2023-02-11T06:20:24;3.00;;;2.90;;
15629;SDS011;7914;50.842;0.166;2023-02-11T06:22:49;2.70;;;2.60;;
15629;SDS011;7914;50.842;0.166;2023-02-11T06:25:15;2.73;;;2.63;;
15629;SDS011;7914;50.842;0.166;2023-02-11T06:27:41;2.70;;;2.60;;
15629;SDS011;7914;50.842;0.166;2023-02-11T06:30:07;2.73;;;2.63;;
15629;SDS011;7914;50.842;0.166;2023-02-11T06:32:33;2.60;;;2.50;;
15629;SDS011;7914;50.842;0.166;2023-02-11T06:34:59;2.67;;;2.57;;
15629;SDS011;7914;50.842;0.166;2023-02-11T06:37:24;2.60;;;2.50;;
15629;SDS011;7914;50.842;0.166;2023-02-11T06:39:50;2.60;;;2.50;;
15629;SDS011;7914;50.842;0.166;2023-02-11T06:42:16;2.70;;;2.60;;
15629;SDS011;7914;50.842;0.166;2023-02-11T06:44:41;2.73;;;2.63;;
15629;SDS011;7914;50.842;0.166;2023-02-11T06:47:08;2.60;;;2.50;;
15629;SDS011;7914;50.842;0.166;2023-02-11T06:49:34;2.70;;;2.60;;
15629;SDS011;7914;50.842;0.166;2023-02-11T06:52:00;2.80;;;2.70;;
15629;SDS011;7914;50.842;0.166;2023-02-11T06:54:25;2.70;;;2.60;;
15629;SDS011;7914;50.842;0.166;2023-02-11T06:56:51;2.53;;;2.43;;
15629;SDS011;7914;50.842;0.166;2023-02-11T06:59:17;2.70;;;2.60;;
15629;SDS011;7914;50.842;0.166;2023-02-11T07:01:44;2.83;;;2.73;;
15629;SDS011;7914;50.842;0.166;2023-02-11T07:04:10;2.60;;;2.50;;
15629;SDS011;7914;50.842;0.166;2023-02-11T07:06:38;2.53;;;2.43;;
15629;SDS011;7914;50.842;0.166;2023-02-11T07:09:04;2.70;;;2.60;;
15629;SDS011;7914;50.842;0.166;2023-02-11T07:11:30;2.60;;;2.50;;
15629;SDS011;7914;50.842;0.166;2023-02-11T07:14:01;2.50;;;2.40;;
15629;SDS011;7914;50.842;0.166;2023-02-11T07:16:29;2.60;;;2.50;;
15629;SDS011;7914;50.842;0.166;2023-02-11T07:18:56;2.50;;;2.40;;
15629;SDS011;7914;50.842;0.166;2023-02-11T07:21:22;2.60;;;2.50;;
15629;SDS011;7914;50.842;0.166;2023-02-11T07:23:48;2.67;;;2.57;;
15629;SDS011;7914;50.842;0.166;2023-02-11T07:26:16;2.50;;;2.40;;
15629;SDS011;7914;50.842;0.166;2023-02-11T07:28:43;2.40;;;2.30;;
15629;SDS011;7914;50.842;0.166;2023-02-11T07:31:11;2.83;;;2.73;;
15629;SDS011;7914;50.842;0.166;2023-02-11T07:33:40;2.60;;;2.50;;
15629;SDS011;7914;50.842;0.166;2023-02-11T07:36:07;2.50;;;2.40;;
15629;SDS011;7914;50.842;0.166;2023-02-11T07:38:34;2.23;;;2.13;;
15629;SDS011;7914;50.842;0.166;2023-02-11T07:41:01;2.13;;;2.03;;
15629;SDS011;7914;50.842;0.166;2023-02-11T07:43:29;2.30;;;2.20;;
15629;SDS011;7914;50.842;0.166;2023-02-11T07:45:55;2.10;;;2.00;;
15629;SDS011;7914;50.842;0.166;2023-02-11T07:48:21;2.20;;;2.10;;
15629;SDS011;7914;50.842;0.166;2023-02-11T07:50:47;2.30;;;2.20;;
15629;SDS011;7914;50.842;0.166;2023-02-11T07:53:13;2.30;;;2.20;;
15629;SDS011;7914;50.842;0.166;2023-02-11T07:55:38;2.40;;;2.30;;
15629;SDS011;7914;50.842;0.166;2023-02-11T07:58:04;2.57;;;2.47;;
15629;SDS011;7914;50.842;0.166;2023-02-11T08:00:30;2.53;;;2.43;;
15629;SDS011;7914;50.842;0.166;2023-02-11T08:02:56;2.67;;;2.57;;
15629;SDS011;7914;50.842;0.166;2023-02-11T08:05:22;2.67;;;2.57;;
15629;SDS011;7914;50.842;0.166;2023-02-11T08:07:51;2.50;;;2.40;;
15629;SDS011;7914;50.842;0.166;2023-02-11T08:10:18;2.30;;;2.20;;
15629;SDS011;7914;50.842;0.166;2023-02-11T08:12:44;2.37;;;2.27;;
15629;SDS011;7914;50.842;0.166;2023-02-11T08:15:09;2.30;;;2.20;;
15629;SDS011;7914;50.842;0.166;2023-02-11T08:17:35;2.47;;;2.37;;
15629;SDS011;7914;50.842;0.166;2023-02-11T08:20:02;2.20;;;2.10;;
15629;SDS011;7914;50.842;0.166;2023-02-11T08:22:30;2.30;;;2.20;;
15629;SDS011;7914;50.842;0.166;2023-02-11T08:24:56;2.00;;;1.90;;
15629;SDS011;7914;50.842;0.166;2023-02-11T08:27:22;1.70;;;1.70;;
15629;SDS011;7914;50.842;0.166;2023-02-11T08:29:49;2.00;;;1.90;;
15629;SDS011;7914;50.842;0.166;2023-02-11T08:32:15;2.40;;;2.30;;
15629;SDS011;7914;50.842;0.166;2023-02-11T08:34:41;2.10;;;2.00;;
15629;SDS011;7914;50.842;0.166;2023-02-11T08:37:06;2.10;;;2.00;;
15629;SDS011;7914;50.842;0.166;2023-02-11T08:39:33;2.27;;;2.17;;
15629;SDS011;7914;50.842;0.166;2023-02-11T08:41:58;2.20;;;2.10;;
15629;SDS011;7914;50.842;0.166;2023-02-11T08:44:24;2.13;;;2.03;;
15629;SDS011;7914;50.842;0.166;2023-02-11T08:46:50;1.90;;;1.80;;
15629;SDS011;7914;50.842;0.166;2023-02-11T08:49:16;1.73;;;1.73;;
15629;SDS011;7914;50.842;0.166;2023-02-11T08:51:42;1.83;;;1.80;;
15629;SDS011;7914;50.842;0.166;2023-02-11T08:54:09;1.90;;;1.87;;
15629;SDS011;7914;50.842;0.166;2023-02-11T08:56:36;1.70;;;1.70;;
15629;SDS011;7914;50.842;0.166;2023-02-11T08:59:02;2.00;;;1.90;;
15629;SDS011;7914;50.842;0.166;2023-02-11T09:01:29;1.77;;;1.77;;
15629;SDS011;7914;50.842;0.166;2023-02-11T09:03:55;1.70;;;1.70;;
15629;SDS011;7914;50.842;0.166;2023-02-11T09:06:22;1.50;;;1.50;;
15629;SDS011;7914;50.842;0.166;2023-02-11T09:08:50;1.60;;;1.60;;
15629;SDS011;7914;50.842;0.166;2023-02-11T09:11:18;1.50;;;1.50;;
15629;SDS011;7914;50.842;0.166;2023-02-11T09:13:45;1.50;;;1.50;;
15629;SDS011;7914;50.842;0.166;2023-02-11T09:16:19;1.40;;;1.40;;
15629;SDS011;7914;50.842;0.166;2023-02-11T09:18:49;1.30;;;1.30;;
15629;SDS011;7914;50.842;0.166;2023-02-11T09:21:15;1.20;;;1.20;;
15629;SDS011;7914;50.842;0.166;2023-02-11T09:23:41;1.20;;;1.20;;
15629;SDS011;7914;50.842;0.166;2023-02-11T09:26:18;1.30;;;1.30;;
15629;SDS011;7914;50.842;0.166;2023-02-11T09:28:46;1.30;;;1.30;;
15629;SDS011;7914;50.842;0.166;2023-02-11T09:31:14;1.10;;;1.10;;
15629;SDS011;7914;50.842;0.166;2023-02-11T09:33:41;1.03;;;1.03;;
15629;SDS011;7914;50.842;0.166;2023-02-11T09:36:12;1.40;;;1.40;;
15629;SDS011;7914;50.842;0.166;2023-02-11T09:38:40;1.30;;;1.30;;
15629;SDS011;7914;50.842;0.166;2023-02-11T09:41:11;1.40;;;1.40;;
15629;SDS011;7914;50.842;0.166;2023-02-11T09:43:49;1.33;;;1.33;;
15629;SDS011;7914;50.842;0.166;2023-02-11T09:46:20;1.20;;;1.20;;
15629;SDS011;7914;50.842;0.166;2023-02-11T09:48:49;1.20;;;1.20;;
15629;SDS011;7914;50.842;0.166;2023-02-11T09:51:18;1.03;;;1.03;;
15629;SDS011;7914;50.842;0.166;2023-02-11T09:53:55;1.00;;;1.00;;
15629;SDS011;7914;50.842;0.166;2023-02-11T09:56:24;1.17;;;1.17;;
15629;SDS011;7914;50.842;0.166;2023-02-11T09:58:51;1.00;;;1.00;;
15629;SDS011;7914;50.842;0.166;2023-02-11T10:06:46;1.10;;;1.10;;
15629;SDS011;7914;50.842;0.166;2023-02-11T10:22:51;0.80;;;0.80;;
15629;SDS011;7914;50.842;0.166;2023-02-11T10:25:21;1.10;;;1.10;;
15629;SDS011;7914;50.842;0.166;2023-02-11T10:27:51;1.00;;;1.00;;
15629;SDS011;7914;50.842;0.166;2023-02-11T10:30:32;1.03;;;1.03;;
15629;SDS011;7914;50.842;0.166;2023-02-11T10:33:15;1.10;;;1.10;;
15629;SDS011;7914;50.842;0.166;2023-02-11T10:35:49;0.80;;;0.80;;
15629;SDS011;7914;50.842;0.166;2023-02-11T10:38:15;0.80;;;0.80;;
15629;SDS011;7914;50.842;0.166;2023-02-11T10:40:40;1.00;;;1.00;;
15629;SDS011;7914;50.842;0.166;2023-02-11T10:43:09;0.80;;;0.80;;
15629;SDS011;7914;50.842;0.166;2023-02-11T10:45:45;0.80;;;0.80;;
15629;SDS011;7914;50.842;0.166;2023-02-11T10:51:11;0.90;;;0.90;;
15629;SDS011;7914;50.842;0.166;2023-02-11T10:53:43;0.90;;;0.90;;
15629;SDS011;7914;50.842;0.166;2023-02-11T10:56:31;1.00;;;1.00;;
15629;SDS011;7914;50.842;0.166;2023-02-11T11:01:37;1.10;;;1.10;;
15629;SDS011;7914;50.842;0.166;2023-02-11T11:04:05;1.00;;;1.00;;
15629;SDS011;7914;50.842;0.166;2023-02-11T11:06:44;0.77;;;0.77;;
15629;SDS011;7914;50.842;0.166;2023-02-11T11:09:20;0.80;;;0.80;;
15629;SDS011;7914;50.842;0.166;2023-02-11T11:11:55;0.77;;;0.77;;
15629;SDS011;7914;50.842;0.166;2023-02-11T11:14:20;0.70;;;0.70;;
15629;SDS011;7914;50.842;0.166;2023-02-11T11:16:53;0.70;;;0.70;;
15629;SDS011;7914;50.842;0.166;2023-02-11T11:19:23;0.97;;;0.97;;
15629;SDS011;7914;50.842;0.166;2023-02-11T11:21:53;0.90;;;0.90;;
15629;SDS011;7914;50.842;0.166;2023-02-11T11:24:25;0.80;;;0.80;;
15629;SDS011;7914;50.842;0.166;2023-02-11T11:27:31;0.70;;;0.70;;
15629;SDS011;7914;50.842;0.166;2023-02-11T11:29:56;0.53;;;0.53;;
15629;SDS011;7914;50.842;0.166;2023-02-11T11:32:23;0.80;;;0.80;;
15629;SDS011;7914;50.842;0.166;2023-02-11T11:34:55;0.70;;;0.70;;
15629;SDS011;7914;50.842;0.166;2023-02-11T11:37:26;0.90;;;0.90;;
15629;SDS011;7914;50.842;0.166;2023-02-11T11:40:37;0.87;;;0.87;;
15629;SDS011;7914;50.842;0.166;2023-02-11T11:42:40;0.90;;;0.90;;
15629;SDS011;7914;50.842;0.166;2023-02-11T11:45:21;0.80;;;0.80;;
15629;SDS011;7914;50.842;0.166;2023-02-11T11:55:46;0.70;;;0.70;;
15629;SDS011;7914;50.842;0.166;2023-02-11T11:58:20;0.70;;;0.70;;
15629;SDS011;7914;50.842;0.166;2023-02-11T12:03:46;0.80;;;0.80;;
15629;SDS011;7914;50.842;0.166;2023-02-11T12:14:55;0.80;;;0.80;;
15629;SDS011;7914;50.842;0.166;2023-02-11T12:36:49;0.70;;;0.70;;
15629;SDS011;7914;50.842;0.166;2023-02-11T12:45:40;0.70;;;0.70;;
15629;SDS011;7914;50.842;0.166;2023-02-11T12:54:11;0.80;;;0.80;;
15629;SDS011;7914;50.842;0.166;2023-02-11T12:59:12;0.80;;;0.80;;
15629;SDS011;7914;50.842;0.166;2023-02-11T13:01:44;0.90;;;0.90;;
15629;SDS011;7914;50.842;0.166;2023-02-11T13:04:19;0.90;;;0.90;;
15629;SDS011;7914;50.842;0.166;2023-02-11T13:07:14;0.70;;;0.70;;
15629;SDS011;7914;50.842;0.166;2023-02-11T13:12:42;0.70;;;0.70;;
15629;SDS011;7914;50.842;0.166;2023-02-11T13:15:29;0.90;;;0.90;;
15629;SDS011;7914;50.842;0.166;2023-02-11T13:21:14;0.80;;;0.80;;
15629;SDS011;7914;50.842;0.166;2023-02-11T13:32:10;0.90;;;0.90;;
15629;SDS011;7914;50.842;0.166;2023-02-11T13:37:12;1.00;;;1.00;;
15629;SDS011;7914;50.842;0.166;2023-02-11T13:40:01;0.80;;;0.80;;
15629;SDS011;7914;50.842;0.166;2023-02-11T13:47:58;1.10;;;1.10;;
15629;SDS011;7914;50.842;0.166;2023-02-11T13:50:36;0.93;;;0.93;;
15629;SDS011;7914;50.842;0.166;2023-02-11T13:53:04;0.90;;;0.90;;
15629;SDS011;7914;50.842;0.166;2023-02-11T13:55:32;0.80;;;0.80;;
15629;SDS011;7914;50.842;0.166;2023-02-11T14:08:59;0.80;;;0.80;;
15629;SDS011;7914;50.842;0.166;2023-02-11T14:19:39;0.90;;;0.90;;
15629;SDS011;7914;50.842;0.166;2023-02-11T14:22:24;0.80;;;0.80;;
15629;SDS011;7914;50.842;0.166;2023-02-11T14:25:18;0.70;;;0.70;;
15629;SDS011;7914;50.842;0.166;2023-02-11T14:30:28;0.80;;;0.80;;
15629;SDS011;7914;50.842;0.166;2023-02-11T14:33:11;0.83;;;0.83;;
15629;SDS011;7914;50.842;0.166;2023-02-11T14:38:45;0.90;;;0.90;;
15629;SDS011;7914;50.842;0.166;2023-02-11T14:41:39;0.77;;;0.77;;
15629;SDS011;7914;50.842;0.166;2023-02-11T14:44:25;0.90;;;0.90;;
15629;SDS011;7914;50.842;0.166;2023-02-11T14:46:54;0.80;;;0.80;;
15629;SDS011;7914;50.842;0.166;2023-02-11T14:49:23;0.80;;;0.80;;
15629;SDS011;7914;50.842;0.166;2023-02-11T14:51:49;0.70;;;0.70;;
15629;SDS011;7914;50.842;0.166;2023-02-11T14:54:18;0.90;;;0.90;;
15629;SDS011;7914;50.842;0.166;2023-02-11T14:59:33;0.90;;;0.90;;
15629;SDS011;7914;50.842;0.166;2023-02-11T15:01:59;0.80;;;0.80;;
15629;SDS011;7914;50.842;0.166;2023-02-11T15:06:52;0.80;;;0.80;;
15629;SDS011;7914;50.842;0.166;2023-02-11T15:09:40;0.90;;;0.90;;
15629;SDS011;7914;50.842;0.166;2023-02-11T15:12:27;0.87;;;0.87;;
15629;SDS011;7914;50.842;0.166;2023-02-11T15:14:56;0.80;;;0.80;;
15629;SDS011;7914;50.842;0.166;2023-02-11T15:17:25;0.93;;;0.93;;
15629;SDS011;7914;50.842;0.166;2023-02-11T15:19:55;0.80;;;0.80;;
15629;SDS011;7914;50.842;0.166;2023-02-11T15:22:27;0.70;;;0.70;;
15629;SDS011;7914;50.842;0.166;2023-02-11T15:27:39;0.70;;;0.70;;
15629;SDS011;7914;50.842;0.166;2023-02-11T15:32:51;0.83;;;0.83;;
15629;SDS011;7914;50.842;0.166;2023-02-11T15:35:24;0.80;;;0.80;;
15629;SDS011;7914;50.842;0.166;2023-02-11T15:37:55;0.90;;;0.90;;
15629;SDS011;7914;50.842;0.166;2023-02-11T15:40:23;1.00;;;1.00;;
15629;SDS011;7914;50.842;0.166;2023-02-11T15:42:52;1.00;;;1.00;;
15629;SDS011;7914;50.842;0.166;2023-02-11T15:45:24;0.90;;;0.90;;
15629;SDS011;7914;50.842;0.166;2023-02-11T15:48:08;0.80;;;0.80;;
15629;SDS011;7914;50.842;0.166;2023-02-11T15:50:37;0.80;;;0.80;;
15629;SDS011;7914;50.842;0.166;2023-02-11T15:56:43;0.70;;;0.70;;
15629;SDS011;7914;50.842;0.166;2023-02-11T16:01:54;0.80;;;0.80;;
15629;SDS011;7914;50.842;0.166;2023-02-11T16:04:30;1.10;;;1.10;;
15629;SDS011;7914;50.842;0.166;2023-02-11T16:06:56;1.00;;;1.00;;
15629;SDS011;7914;50.842;0.166;2023-02-11T16:09:23;0.90;;;0.90;;
15629;SDS011;7914;50.842;0.166;2023-02-11T16:11:58;0.93;;;0.93;;
15629;SDS011;7914;50.842;0.166;2023-02-11T16:16:59;0.90;;;0.90;;
15629;SDS011;7914;50.842;0.166;2023-02-11T16:19:45;0.83;;;0.83;;
15629;SDS011;7914;50.842;0.166;2023-02-11T16:22:16;0.90;;;0.90;;
15629;SDS011;7914;50.842;0.166;2023-02-11T16:24:45;0.97;;;0.97;;
15629;SDS011;7914;50.842;0.166;2023-02-11T16:32:57;0.90;;;0.90;;
15629;SDS011;7914;50.842;0.166;2023-02-11T16:35:23;0.93;;;0.93;;
15629;SDS011;7914;50.842;0.166;2023-02-11T16:37:49;0.73;;;0.73;;
15629;SDS011;7914;50.842;0.166;2023-02-11T16:40:15;0.97;;;0.97;;
15629;SDS011;7914;50.842;0.166;2023-02-11T16:42:41;1.00;;;1.00;;
15629;SDS011;7914;50.842;0.166;2023-02-11T16:45:06;0.90;;;0.90;;
15629;SDS011;7914;50.842;0.166;2023-02-11T16:47:33;0.90;;;0.90;;
15629;SDS011;7914;50.842;0.166;2023-02-11T16:49:59;0.80;;;0.80;;
15629;SDS011;7914;50.842;0.166;2023-02-11T16:52:26;0.83;;;0.83;;
15629;SDS011;7914;50.842;0.166;2023-02-11T16:54:52;0.90;;;0.90;;
15629;SDS011;7914;50.842;0.166;2023-02-11T16:57:27;0.90;;;0.90;;
15629;SDS011;7914;50.842;0.166;2023-02-11T16:59:53;0.83;;;0.83;;
15629;SDS011;7914;50.842;0.166;2023-02-11T17:04:45;0.97;;;0.97;;
15629;SDS011;7914;50.842;0.166;2023-02-11T17:07:11;1.13;;;1.13;;
15629;SDS011;7914;50.842;0.166;2023-02-11T17:09:37;1.00;;;1.00;;
15629;SDS011;7914;50.842;0.166;2023-02-11T17:12:03;1.00;;;1.00;;
15629;SDS011;7914;50.842;0.166;2023-02-11T17:14:29;1.00;;;1.00;;
15629;SDS011;7914;50.842;0.166;2023-02-11T17:16:54;0.93;;;0.93;;
15629;SDS011;7914;50.842;0.166;2023-02-11T17:19:20;0.90;;;0.90;;
15629;SDS011;7914;50.842;0.166;2023-02-11T17:21:47;1.00;;;1.00;;
15629;SDS011;7914;50.842;0.166;2023-02-11T17:24:14;1.00;;;1.00;;
15629;SDS011;7914;50.842;0.166;2023-02-11T17:26:40;0.90;;;0.90;;
15629;SDS011;7914;50.842;0.166;2023-02-11T17:29:08;1.00;;;1.00;;
15629;SDS011;7914;50.842;0.166;2023-02-11T17:31:36;0.90;;;0.90;;
15629;SDS011;7914;50.842;0.166;2023-02-11T17:34:03;0.83;;;0.83;;
15629;SDS011;7914;50.842;0.166;2023-02-11T17:36:29;0.90;;;0.90;;
15629;SDS011;7914;50.842;0.166;2023-02-11T17:38:58;0.87;;;0.87;;
15629;SDS011;7914;50.842;0.166;2023-02-11T17:41:25;0.80;;;0.80;;
15629;SDS011;7914;50.842;0.166;2023-02-11T17:43:51;1.03;;;1.03;;
15629;SDS011;7914;50.842;0.166;2023-02-11T17:46:17;0.83;;;0.83;;
15629;SDS011;7914;50.842;0.166;2023-02-11T17:48:43;0.90;;;0.90;;
15629;SDS011;7914;50.842;0.166;2023-02-11T17:51:22;0.83;;;0.83;;
15629;SDS011;7914;50.842;0.166;2023-02-11T17:53:48;1.00;;;1.00;;
15629;SDS011;7914;50.842;0.166;2023-02-11T17:56:13;1.10;;;1.10;;
15629;SDS011;7914;50.842;0.166;2023-02-11T17:58:39;1.00;;;1.00;;
15629;SDS011;7914;50.842;0.166;2023-02-11T18:01:05;1.10;;;1.10;;
15629;SDS011;7914;50.842;0.166;2023-02-11T18:03:30;1.10;;;1.10;;
15629;SDS011;7914;50.842;0.166;2023-02-11T18:06:00;0.93;;;0.93;;
15629;SDS011;7914;50.842;0.166;2023-02-11T18:08:28;0.97;;;0.97;;
15629;SDS011;7914;50.842;0.166;2023-02-11T18:10:54;1.00;;;1.00;;
15629;SDS011;7914;50.842;0.166;2023-02-11T18:13:20;1.10;;;1.10;;
15629;SDS011;7914;50.842;0.166;2023-02-11T18:15:45;1.30;;;1.30;;
15629;SDS011;7914;50.842;0.166;2023-02-11T18:18:11;1.03;;;1.03;;